Time;durP1;ratioP1;P1;durP2;ratioP2;P2;SDS_P1;SDS_P2;PMS_P1;PMS_P2;Temp;Humidity;BMP_temperature;BMP_pressure;BME280_temperature;BME280_humidity;BME280_pressure;Samples;Min_cycle;Max_cycle;Signal;HPM_P1;HPM_P2
2023/08/18 00:02:15;;;;;;;5.53;4.15;;;;;;;24.54;nan;62160.44;5031235;28;20222;-65
2023/08/18 00:04:41;;;;;;;5.97;4.05;;;;;;;24.71;nan;62302.06;5033195;28;20240;-65
2023/08/18 00:07:07;;;;;;;6.72;4.13;;;;;;;24.75;nan;62211.97;5036486;28;20564;-66
2023/08/18 00:09:32;;;;;;;5.47;4.20;;;;;;;24.49;nan;62282.75;5031116;28;20207;-68
2023/08/18 00:11:58;;;;;;;7.53;4.80;;;;;;;24.34;nan;62137.06;5031199;28;20182;-68
2023/08/18 00:14:23;;;;;;;5.97;4.38;;;;;;;24.39;nan;62156.41;5031070;28;20549;-68
2023/08/18 00:16:49;;;;;;;7.03;4.38;;;;;;;24.36;nan;62165.47;5030902;28;20202;-64
2023/08/18 00:19:14;;;;;;;7.50;4.60;;;;;;;24.11;nan;62236.75;5030781;28;20175;-69
2023/08/18 00:21:40;;;;;;;6.70;4.35;;;;;;;24.12;nan;62120.41;5031077;28;20171;-68
2023/08/18 00:24:06;;;;;;;7.15;4.90;;;;;;;24.00;nan;62112.53;5030990;28;20163;-66
2023/08/18 00:26:31;;;;;;;9.82;4.70;;;;;;;23.78;nan;62187.22;5031200;28;20219;-66
2023/08/18 00:28:56;;;;;;;8.43;5.15;;;;;;;23.64;nan;62155.59;5031497;28;20163;-68
2023/08/18 00:31:23;;;;;;;7.15;4.90;;;;;;;23.60;nan;62006.97;5030896;28;20206;-65
2023/08/18 00:33:49;;;;;;;6.68;4.45;;;;;;;23.62;nan;62051.56;5031011;28;20163;-67
2023/08/18 00:36:14;;;;;;;6.65;4.68;;;;;;;23.60;nan;62090.47;5030642;28;20164;-65
2023/08/18 00:38:39;;;;;;;8.15;5.05;;;;;;;23.59;nan;62016.84;5028794;28;20179;-69
2023/08/18 00:41:05;;;;;;;7.03;4.90;;;;;;;23.77;nan;62139.09;5030680;28;20178;-65
2023/08/18 00:43:30;;;;;;;6.95;5.00;;;;;;;23.44;nan;62106.75;5028276;28;20176;-67
2023/08/18 00:45:56;;;;;;;7.40;5.03;;;;;;;23.44;nan;62033.72;5031087;28;20172;-65
2023/08/18 00:48:22;;;;;;;9.75;5.07;;;;;;;23.22;nan;61982.56;5030144;28;20167;-65
2023/08/18 00:50:48;;;;;;;8.45;4.95;;;;;;;23.25;nan;62014.66;5030576;28;20225;-66
2023/08/18 00:53:14;;;;;;;9.48;4.95;;;;;;;23.19;nan;62021.44;5030918;28;20599;-68
2023/08/18 00:55:40;;;;;;;9.07;5.07;;;;;;;23.07;nan;62072.97;5028778;28;20270;-63
2023/08/18 00:58:06;;;;;;;7.32;4.65;;;;;;;23.08;nan;62070.91;5030625;28;20245;-65
2023/08/18 01:00:32;;;;;;;11.45;5.03;;;;;;;22.67;nan;62056.63;5032926;28;20191;-67
2023/08/18 01:02:59;;;;;;;7.30;4.82;;;;;;;23.11;nan;61996.72;5033588;28;20175;-66
2023/08/18 01:05:24;;;;;;;9.18;5.20;;;;;;;22.93;nan;61947.00;5033961;28;20570;-65
2023/08/18 01:07:49;;;;;;;11.40;4.78;;;;;;;22.97;nan;62021.91;5033830;28;20215;-65
2023/08/18 01:10:15;;;;;;;7.85;5.07;;;;;;;22.70;nan;62062.09;5033991;28;20622;-66
2023/08/18 01:13:04;;;;;;;6.50;4.88;;;;;;;23.03;nan;62078.81;5033283;28;20183;-65
2023/08/18 01:15:38;;;;;;;11.57;5.55;;;;;;;22.97;nan;61978.19;5030169;28;20240;-67
2023/08/18 01:18:05;;;;;;;6.68;4.63;;;;;;;22.57;nan;62039.44;5032970;28;20693;-65
2023/08/18 01:20:32;;;;;;;9.85;4.95;;;;;;;22.63;nan;61897.81;5033959;28;20183;-66
2023/08/18 01:23:01;;;;;;;7.75;5.20;;;;;;;22.57;nan;61989.97;5035122;28;20594;-64
2023/08/18 01:25:28;;;;;;;8.57;5.00;;;;;;;22.31;nan;62005.22;5034729;28;20635;-65
2023/08/18 01:27:55;;;;;;;7.22;5.20;;;;;;;22.50;nan;61903.88;5034911;28;20191;-67
2023/08/18 01:30:27;;;;;;;8.57;5.22;;;;;;;22.40;nan;61880.63;5034097;28;20207;-69
2023/08/18 01:33:10;;;;;;;8.90;5.20;;;;;;;22.35;nan;61895.22;5034925;28;20635;-66
2023/08/18 01:35:36;;;;;;;9.55;5.32;;;;;;;22.04;nan;61897.00;5034385;28;20623;-69
2023/08/18 01:38:03;;;;;;;8.98;5.20;;;;;;;22.11;nan;61860.72;5034025;28;20183;-68
2023/08/18 01:40:30;;;;;;;8.35;5.05;;;;;;;22.02;nan;61881.72;5034113;28;20201;-65
2023/08/18 01:42:58;;;;;;;8.18;4.78;;;;;;;21.91;nan;61750.09;5033034;28;20179;-66
2023/08/18 01:45:24;;;;;;;10.05;5.10;;;;;;;21.90;nan;61782.22;5031706;28;20310;-68
2023/08/18 01:47:49;;;;;;;7.70;5.40;;;;;;;21.86;nan;61830.28;5032459;28;20186;-62
2023/08/18 01:50:14;;;;;;;9.18;5.90;;;;;;;21.75;nan;61739.19;5033118;28;20540;-65
2023/08/18 01:52:40;;;;;;;7.85;5.10;;;;;;;21.82;nan;61853.78;5032496;28;20175;-64
2023/08/18 01:55:05;;;;;;;10.02;5.38;;;;;;;21.64;nan;61799.53;5033148;28;20180;-67
2023/08/18 01:57:31;;;;;;;6.00;4.50;;;;;;;21.87;nan;61904.25;5033224;28;20179;-68
2023/08/18 01:59:56;;;;;;;8.77;5.78;;;;;;;21.51;nan;61936.69;5033084;28;20222;-64
2023/08/18 02:02:22;;;;;;;9.07;5.70;;;;;;;21.83;nan;61808.06;5033368;28;20195;-66
2023/08/18 02:04:47;;;;;;;7.47;5.20;;;;;;;21.62;nan;61844.63;5033117;28;20167;-66
2023/08/18 02:07:12;;;;;;;8.48;5.07;;;;;;;21.70;nan;61824.53;5033296;28;20182;-66
2023/08/18 02:09:38;;;;;;;7.95;5.28;;;;;;;21.59;nan;61904.19;5031612;28;20248;-66
2023/08/18 02:12:04;;;;;;;7.65;5.53;;;;;;;21.73;nan;61841.53;5031354;28;20604;-65
2023/08/18 02:14:29;;;;;;;6.88;5.00;;;;;;;21.72;nan;61840.38;5028207;28;20183;-68
2023/08/18 02:16:56;;;;;;;7.65;5.20;;;;;;;21.62;nan;61820.66;5031876;28;20214;-66
2023/08/18 02:19:21;;;;;;;8.63;5.50;;;;;;;21.50;nan;61771.75;5031452;28;20679;-66
2023/08/18 02:21:47;;;;;;;8.73;5.18;;;;;;;21.42;nan;61736.13;5032168;28;20292;-66
2023/08/18 02:24:12;;;;;;;8.38;4.63;;;;;;;21.36;nan;61791.72;5032358;28;20185;-66
2023/08/18 02:26:38;;;;;;;6.80;4.72;;;;;;;21.47;nan;61806.78;5032080;28;20226;-67
2023/08/18 02:29:03;;;;;;;9.70;5.57;;;;;;;21.32;nan;61904.69;5032776;28;20171;-65
2023/08/18 02:31:29;;;;;;;9.30;5.63;;;;;;;21.07;nan;61865.88;5032727;28;20209;-67
2023/08/18 02:33:54;;;;;;;9.35;5.38;;;;;;;21.01;nan;61700.56;5031945;28;20638;-65
2023/08/18 02:36:20;;;;;;;8.30;5.40;;;;;;;21.12;nan;61734.41;5031357;28;20691;-69
2023/08/18 02:38:45;;;;;;;8.25;5.40;;;;;;;21.03;nan;62009.41;5030863;28;20183;-67
2023/08/18 02:41:10;;;;;;;10.30;5.32;;;;;;;20.92;nan;61716.91;5032186;28;20183;-65
2023/08/18 02:43:38;;;;;;;8.85;5.05;;;;;;;;;;5031747;28;20270;-63
2023/08/18 02:46:03;;;;;;;8.05;5.57;;;;;;;21.01;nan;61695.38;5025673;28;20680;-62
2023/08/18 02:48:30;;;;;;;9.63;5.68;;;;;;;21.10;nan;61739.94;5036789;28;20171;-69
2023/08/18 02:51:09;;;;;;;13.27;5.82;;;;;;;20.81;nan;61701.84;5031059;28;20716;-67
2023/08/18 02:53:37;;;;;;;8.68;5.65;;;;;;;20.98;nan;61752.28;5032883;28;20218;-67
2023/08/18 02:56:02;;;;;;;9.85;5.55;;;;;;;20.94;nan;61858.88;4965244;28;20260;-66
2023/08/18 02:58:29;;;;;;;10.38;5.90;;;;;;;20.88;nan;61833.88;4558786;28;20270;-67
2023/08/18 03:00:55;;;;;;;10.68;6.22;;;;;;;20.82;nan;61689.97;5031031;28;20202;-64
2023/08/18 03:03:23;;;;;;;8.82;5.97;;;;;;;20.94;nan;61747.19;5025713;28;20716;-67
2023/08/18 03:05:49;;;;;;;12.60;6.22;;;;;;;20.45;nan;61788.78;5030459;28;20566;-64
2023/08/18 03:08:15;;;;;;;7.78;5.50;;;;;;;20.61;nan;61684.34;5031940;28;20226;-68
2023/08/18 03:10:40;;;;;;;8.75;5.93;;;;;;;20.75;nan;61728.78;5030203;28;20578;-63
2023/08/18 03:13:06;;;;;;;9.57;5.88;;;;;;;20.67;nan;61787.22;5031920;28;20179;-65
2023/08/18 03:15:31;;;;;;;8.82;5.45;;;;;;;20.70;nan;61708.13;5031406;28;20206;-65
2023/08/18 03:17:57;;;;;;;8.30;5.88;;;;;;;20.18;nan;61732.16;5031117;28;20211;-64
2023/08/18 03:20:22;;;;;;;12.55;5.80;;;;;;;20.61;nan;61663.59;5031974;28;20191;-68
2023/08/18 03:22:48;;;;;;;8.63;5.57;;;;;;;20.55;nan;61724.28;5031674;28;20706;-63
2023/08/18 03:25:13;;;;;;;10.15;5.88;;;;;;;20.49;nan;61754.38;5031081;28;20888;-66
2023/08/18 03:27:40;;;;;;;8.98;6.18;;;;;;;20.18;nan;61755.50;5031565;28;20179;-63
2023/08/18 03:30:07;;;;;;;14.45;6.50;;;;;;;20.40;nan;61671.50;5032180;28;20234;-64
2023/08/18 03:32:32;;;;;;;10.07;6.03;;;;;;;20.24;nan;61596.81;5032514;28;20178;-65
2023/08/18 03:34:58;;;;;;;10.55;6.38;;;;;;;19.88;nan;61722.03;5032368;28;20191;-63
2023/08/18 03:37:23;;;;;;;11.57;6.90;;;;;;;20.59;nan;61650.94;5031352;28;20665;-65
2023/08/18 03:39:52;;;;;;;12.55;6.45;;;;;;;20.45;nan;61762.25;5031081;28;20667;-63
2023/08/18 03:42:17;;;;;;;8.35;5.85;;;;;;;20.59;nan;61630.16;5031867;28;20217;-64
2023/08/18 03:44:43;;;;;;;10.63;6.35;;;;;;;20.36;nan;61596.88;5030922;28;20218;-67
2023/08/18 03:47:08;;;;;;;9.00;5.95;;;;;;;20.41;nan;61542.28;5030337;28;20184;-65
2023/08/18 03:49:33;;;;;;;9.85;6.10;;;;;;;20.53;nan;61753.16;5030924;28;20191;-68
2023/08/18 03:51:59;;;;;;;11.63;6.60;;;;;;;20.62;nan;61768.56;5030990;28;20187;-63
2023/08/18 03:54:24;;;;;;;10.38;6.13;;;;;;;20.82;nan;61660.84;5030736;28;20186;-65
2023/08/18 03:56:50;;;;;;;9.70;5.85;;;;;;;21.30;nan;61788.06;5030396;28;20202;-64
2023/08/18 03:59:16;;;;;;;10.65;6.53;;;;;;;21.45;nan;61773.91;5031254;28;20277;-69
2023/08/18 04:01:41;;;;;;;9.15;5.72;;;;;;;22.07;nan;61985.72;5030160;28;20181;-65
2023/08/18 04:04:07;;;;;;;10.30;6.43;;;;;;;22.24;nan;61747.38;5030525;28;20615;-67
2023/08/18 04:06:32;;;;;;;11.75;5.47;;;;;;;22.83;nan;61978.47;5031921;28;20270;-66
2023/08/18 04:09:15;;;;;;;8.48;5.55;;;;;;;23.27;nan;61977.81;5031520;28;20398;-65
2023/08/18 04:11:42;;;;;;;8.65;5.75;;;;;;;23.53;nan;62017.84;5030000;28;20206;-67
2023/08/18 04:14:07;;;;;;;8.38;5.82;;;;;;;24.18;nan;62158.59;5028486;28;20191;-65
2023/08/18 04:16:33;;;;;;;8.48;5.60;;;;;;;24.41;nan;62148.25;5029246;28;20190;-65
2023/08/18 04:18:58;;;;;;;10.38;5.30;;;;;;;24.64;nan;62317.63;5031404;28;20179;-66
2023/08/18 04:21:25;;;;;;;7.90;5.38;;;;;;;24.87;nan;62293.66;5029415;28;20270;-68
2023/08/18 04:23:50;;;;;;;9.40;5.93;;;;;;;24.90;nan;62221.81;5029267;28;20186;-69
2023/08/18 04:26:16;;;;;;;10.00;6.10;;;;;;;25.14;nan;62303.53;5030195;28;20171;-65
2023/08/18 04:28:41;;;;;;;11.75;5.40;;;;;;;25.43;nan;62422.97;5029984;28;20194;-62
2023/08/18 04:31:07;;;;;;;8.63;5.65;;;;;;;25.79;nan;62449.94;5029961;28;20730;-65
2023/08/18 04:33:32;;;;;;;8.23;5.47;;;;;;;26.17;nan;62395.88;5030543;28;20288;-68
2023/08/18 04:35:58;;;;;;;8.07;5.53;;;;;;;26.20;nan;62376.28;5030177;28;20179;-65
2023/08/18 04:38:24;;;;;;;9.98;6.03;;;;;;;26.36;nan;62452.22;5030484;28;20658;-66
2023/08/18 04:41:02;;;;;;;9.32;5.45;;;;;;;26.40;nan;62453.06;5030595;28;20318;-65
2023/08/18 04:43:29;;;;;;;13.23;6.88;;;;;;;26.38;nan;62375.91;5028780;28;20274;-65
2023/08/18 04:45:55;;;;;;;9.60;6.20;;;;;;;26.37;nan;62437.06;5029580;28;20183;-67
2023/08/18 04:48:24;;;;;;;8.38;5.50;;;;;;;26.13;nan;62404.38;5030070;28;20736;-67
2023/08/18 04:50:50;;;;;;;8.35;5.47;;;;;;;26.24;nan;62414.38;5030551;28;20674;-65
2023/08/18 04:53:16;;;;;;;9.95;6.00;;;;;;;26.02;nan;62457.91;5030606;28;20187;-66
2023/08/18 04:55:42;;;;;;;8.50;5.55;;;;;;;26.14;nan;62615.72;5029417;28;20175;-67
2023/08/18 04:58:12;;;;;;;11.45;6.38;;;;;;;26.03;nan;62409.28;5030262;28;20179;-65
2023/08/18 05:00:44;;;;;;;13.68;7.13;;;;;;;25.67;nan;62457.16;5026650;28;20183;-65
2023/08/18 05:03:11;;;;;;;9.48;5.82;;;;;;;25.68;nan;62421.66;5029285;28;20183;-64
2023/08/18 05:05:56;;;;;;;7.50;5.35;;;;;;;25.66;nan;62356.53;5030380;28;20179;-66
2023/08/18 05:08:21;;;;;;;10.35;5.68;;;;;;;25.56;nan;62421.03;5030957;28;20273;-66
2023/08/18 05:10:47;;;;;;;9.45;5.32;;;;;;;25.51;nan;62371.94;5029878;28;20199;-64
2023/08/18 05:13:12;;;;;;;11.20;5.45;;;;;;;25.33;nan;62435.13;5030512;28;20180;-65
2023/08/18 05:15:37;;;;;;;8.23;5.20;;;;;;;25.56;nan;62360.81;5030609;28;20658;-65
2023/08/18 05:18:04;;;;;;;8.75;5.32;;;;;;;25.56;nan;62343.09;5030604;28;20179;-64
2023/08/18 05:20:29;;;;;;;9.00;6.03;;;;;;;25.28;nan;62402.66;5030829;28;20163;-67
2023/08/18 05:22:55;;;;;;;7.78;5.50;;;;;;;25.47;nan;62325.50;5030815;28;20175;-67
2023/08/18 05:25:20;;;;;;;7.15;5.20;;;;;;;25.13;nan;62367.78;5030783;28;20199;-65
2023/08/18 05:27:47;;;;;;;7.50;5.22;;;;;;;25.42;nan;62279.97;5030611;28;20183;-67
2023/08/18 05:30:13;;;;;;;8.50;5.18;;;;;;;25.40;nan;62553.03;5029588;28;20725;-67
2023/08/18 05:32:38;;;;;;;7.40;4.65;;;;;;;25.21;nan;62308.91;5029795;28;20183;-67
2023/08/18 05:35:04;;;;;;;7.15;4.78;;;;;;;25.45;nan;62312.75;5030625;28;20511;-68
2023/08/18 05:37:29;;;;;;;8.45;5.15;;;;;;;25.70;nan;62340.75;5027174;28;20190;-66
2023/08/18 05:39:56;;;;;;;8.50;4.80;;;;;;;25.71;nan;62341.31;5029633;28;20675;-66
2023/08/18 05:42:21;;;;;;;7.03;5.00;;;;;;;25.69;nan;62307.59;5025335;28;20274;-65
2023/08/18 05:44:47;;;;;;;7.15;4.90;;;;;;;25.44;nan;62379.06;5028195;28;20354;-64
2023/08/18 05:47:12;;;;;;;7.40;4.80;;;;;;;25.44;nan;62395.34;5032747;28;20203;-64
2023/08/18 05:49:38;;;;;;;10.52;5.60;;;;;;;25.75;nan;62503.53;5031162;28;20226;-70
2023/08/18 05:52:04;;;;;;;6.97;4.80;;;;;;;25.95;nan;62358.22;5032370;28;20235;-68
2023/08/18 05:54:29;;;;;;;12.65;5.38;;;;;;;25.89;nan;62312.69;5031612;28;20647;-66
2023/08/18 05:56:55;;;;;;;8.70;4.75;;;;;;;26.07;nan;62366.13;5032238;28;20202;-65
2023/08/18 05:59:20;;;;;;;9.23;4.60;;;;;;;26.07;nan;62348.34;5031531;28;20182;-65
2023/08/18 06:01:46;;;;;;;7.47;5.10;;;;;;;26.28;nan;62384.88;5032492;28;20190;-66
2023/08/18 06:04:12;;;;;;;11.65;4.63;;;;;;;26.68;nan;62534.88;5033589;28;20179;-66
2023/08/18 06:06:37;;;;;;;9.07;4.90;;;;;;;26.89;nan;62519.00;5031867;28;20190;-67
2023/08/18 06:09:03;;;;;;;7.70;4.95;;;;;;;26.87;nan;62661.00;5031040;28;20368;-64
2023/08/18 06:11:29;;;;;;;5.60;4.40;;;;;;;26.94;nan;62677.44;5031773;28;20207;-64
2023/08/18 06:13:54;;;;;;;9.13;4.82;;;;;;;27.16;nan;62560.38;5031269;28;20190;-62
2023/08/18 06:16:20;;;;;;;6.82;4.50;;;;;;;27.23;nan;62487.03;5031980;28;20621;-67
2023/08/18 06:18:45;;;;;;;7.32;4.95;;;;;;;27.33;nan;62660.63;5033557;28;20231;-62
2023/08/18 06:21:10;;;;;;;6.65;4.40;;;;;;;27.34;nan;62583.00;5035429;28;20645;-64
2023/08/18 06:23:36;;;;;;;6.05;4.25;;;;;;;27.30;nan;62594.75;5033822;28;20674;-67
2023/08/18 06:26:02;;;;;;;6.38;4.45;;;;;;;27.48;nan;62593.78;5032209;28;20179;-67
2023/08/18 06:28:27;;;;;;;10.25;4.95;;;;;;;27.29;nan;62598.28;5032163;28;20566;-68
2023/08/18 06:30:53;;;;;;;7.22;4.55;;;;;;;27.53;nan;62629.00;5032795;28;20249;-69
2023/08/18 06:33:18;;;;;;;5.78;4.15;;;;;;;;;;5032009;28;20195;-65
2023/08/18 06:35:43;;;;;;;6.75;4.43;;;;;;;27.35;nan;62557.91;5032138;28;20241;-64
2023/08/18 06:38:09;;;;;;;8.98;4.97;;;;;;;27.44;nan;62599.72;5032943;28;20658;-64
2023/08/18 06:40:34;;;;;;;6.88;4.65;;;;;;;27.71;nan;62625.38;5031730;28;20900;-66
2023/08/18 06:43:00;;;;;;;6.53;4.68;;;;;;;27.60;nan;62612.81;5032026;28;20211;-62
2023/08/18 06:45:25;;;;;;;5.57;4.57;;;;;;;27.84;nan;62881.97;5032449;28;20270;-64
2023/08/18 06:47:51;;;;;;;5.63;4.13;;;;;;;28.03;nan;62696.19;5033088;28;20207;-61
2023/08/18 06:50:17;;;;;;;8.02;4.95;;;;;;;28.21;nan;62797.75;5031473;28;20265;-65
2023/08/18 06:52:43;;;;;;;6.00;4.43;;;;;;;28.39;nan;62815.22;5031190;28;20620;-65
2023/08/18 06:55:13;;;;;;;6.20;4.78;;;;;;;28.31;nan;62714.59;5031007;28;20175;-66
2023/08/18 06:57:40;;;;;;;7.13;5.30;;;;;;;28.49;nan;62797.75;5030210;28;20233;-66
2023/08/18 07:00:09;;;;;;;7.40;4.85;;;;;;;28.58;nan;62734.44;5030967;28;20554;-70
2023/08/18 07:02:35;;;;;;;6.93;4.80;;;;;;;28.60;nan;62742.00;5030401;28;20194;-69
2023/08/18 07:05:01;;;;;;;7.85;5.15;;;;;;;28.51;nan;62942.66;5030990;28;20180;-69
2023/08/18 07:07:26;;;;;;;6.32;4.35;;;;;;;28.83;nan;62880.94;5030871;28;20231;-68
2023/08/18 07:09:53;;;;;;;7.20;4.68;;;;;;;28.65;nan;62812.91;5029939;28;20207;-67
2023/08/18 07:12:18;;;;;;;12.13;5.20;;;;;;;28.68;nan;62772.19;5030460;28;20502;-68
2023/08/18 07:14:44;;;;;;;6.90;4.57;;;;;;;28.81;nan;62800.28;5030732;28;20175;-69
2023/08/18 07:17:09;;;;;;;10.65;5.50;;;;;;;29.03;nan;63048.13;5030910;28;20214;-66
2023/08/18 07:19:35;;;;;;;7.80;4.93;;;;;;;29.19;nan;62890.13;5030607;28;20637;-65
2023/08/18 07:22:00;;;;;;;7.75;5.03;;;;;;;29.35;nan;62959.13;5030610;28;20203;-67
2023/08/18 07:24:25;;;;;;;6.97;5.07;;;;;;;29.46;nan;63131.31;5030765;28;20182;-63
2023/08/18 07:26:51;;;;;;;7.78;4.78;;;;;;;29.57;nan;63097.13;5029728;28;20662;-66
2023/08/18 07:29:16;;;;;;;8.23;5.07;;;;;;;29.45;nan;62990.56;5030778;28;20183;-66
2023/08/18 07:31:42;;;;;;;5.72;4.55;;;;;;;29.73;nan;62959.50;5030071;28;20198;-68
2023/08/18 07:34:08;;;;;;;5.55;4.50;;;;;;;29.41;nan;62960.19;5030318;28;20578;-68
2023/08/18 07:36:35;;;;;;;6.32;4.50;;;;;;;29.92;nan;62996.59;5030010;28;20191;-67
2023/08/18 07:39:03;;;;;;;6.65;4.38;;;;;;;29.93;nan;63080.03;5030352;28;20191;-65
2023/08/18 07:41:28;;;;;;;8.10;4.70;;;;;;;29.97;nan;63107.78;5026470;28;20232;-68
2023/08/18 07:43:54;;;;;;;5.35;3.92;;;;;;;30.19;nan;63025.56;5029722;28;20296;-65
2023/08/18 07:46:20;;;;;;;6.53;4.57;;;;;;;29.85;nan;62987.03;5030305;28;20247;-65
2023/08/18 07:48:46;;;;;;;9.30;4.95;;;;;;;30.04;nan;62984.03;5029110;28;20257;-65
2023/08/18 07:51:11;;;;;;;6.18;4.63;;;;;;;29.96;nan;62980.09;5030502;28;20670;-66
2023/08/18 07:53:37;;;;;;;6.82;5.00;;;;;;;30.18;nan;62952.63;5029277;28;20262;-64
2023/08/18 07:56:03;;;;;;;7.47;4.60;;;;;;;29.90;nan;62938.94;5030324;28;20182;-66
2023/08/18 07:58:29;;;;;;;7.07;4.47;;;;;;;29.57;nan;62878.47;5026370;28;20194;-66
2023/08/18 08:00:56;;;;;;;5.88;4.30;;;;;;;29.57;nan;63073.41;5030037;28;20175;-65
2023/08/18 08:03:22;;;;;;;5.40;4.00;;;;;;;29.67;nan;62921.56;5031334;28;20542;-66
2023/08/18 08:05:48;;;;;;;6.13;4.38;;;;;;;29.76;nan;62895.00;5033858;28;20185;-65
2023/08/18 08:08:14;;;;;;;6.75;4.47;;;;;;;30.22;nan;63026.38;5029444;28;20222;-66
2023/08/18 08:10:39;;;;;;;6.43;4.38;;;;;;;30.50;nan;63018.44;5025550;28;20205;-69
2023/08/18 08:13:04;;;;;;;8.38;4.45;;;;;;;30.62;nan;63050.13;5029072;28;20175;-65
2023/08/18 08:15:30;;;;;;;8.18;4.90;;;;;;;30.88;nan;63134.91;5027878;28;20317;-66
2023/08/18 08:17:56;;;;;;;5.63;4.07;;;;;;;31.19;nan;63141.53;5027130;28;20174;-65
2023/08/18 08:20:21;;;;;;;8.90;4.90;;;;;;;31.60;nan;63206.09;5028881;28;20252;-65
2023/08/18 08:22:48;;;;;;;10.23;4.70;;;;;;;31.80;nan;63448.63;5028223;28;20513;-63
2023/08/18 08:25:14;;;;;;;6.38;4.70;;;;;;;31.77;nan;63242.13;5028344;28;20183;-68
2023/08/18 08:27:40;;;;;;;6.65;4.80;;;;;;;31.47;nan;63207.56;5031341;28;20224;-65
2023/08/18 08:30:07;;;;;;;8.55;4.60;;;;;;;31.67;nan;63198.31;5031176;28;20800;-66
2023/08/18 08:32:33;;;;;;;5.63;4.07;;;;;;;31.39;nan;63217.41;5030127;28;20301;-67
2023/08/18 08:34:58;;;;;;;5.30;4.25;;;;;;;31.10;nan;63244.75;5030001;28;20206;-66
2023/08/18 08:37:24;;;;;;;6.35;4.57;;;;;;;31.24;nan;63323.72;5029352;28;20182;-69
2023/08/18 08:39:50;;;;;;;6.45;4.32;;;;;;;31.22;nan;63187.25;5029996;28;20654;-65
2023/08/18 08:42:15;;;;;;;6.00;4.47;;;;;;;30.99;nan;63118.50;5028335;28;20244;-67
2023/08/18 08:44:42;;;;;;;7.95;5.35;;;;;;;30.87;nan;63207.66;5029369;28;20186;-62
2023/08/18 08:47:07;;;;;;;6.22;4.55;;;;;;;30.90;nan;63192.63;5027541;28;20277;-66
2023/08/18 08:49:35;;;;;;;7.13;4.70;;;;;;;30.54;nan;63168.16;5029630;28;20274;-64
2023/08/18 08:52:06;;;;;;;8.93;5.05;;;;;;;31.40;nan;63171.00;5029079;28;20252;-68
2023/08/18 08:54:36;;;;;;;7.25;4.63;;;;;;;31.10;nan;63170.81;5024510;28;20183;-70
2023/08/18 08:57:04;;;;;;;6.88;4.72;;;;;;;31.09;nan;63264.75;5027330;28;20273;-62
2023/08/18 08:59:30;;;;;;;7.00;4.70;;;;;;;31.26;nan;63307.56;5027403;28;20197;-65
2023/08/18 09:01:56;;;;;;;6.60;4.85;;;;;;;31.06;nan;63153.56;5026781;28;20553;-65
2023/08/18 09:04:22;;;;;;;8.48;4.72;;;;;;;31.09;nan;63156.44;5027781;28;20309;-65
2023/08/18 09:06:48;;;;;;;8.38;4.85;;;;;;;31.07;nan;63350.19;5026366;28;20186;-65
2023/08/18 09:09:14;;;;;;;5.63;4.32;;;;;;;31.26;nan;63173.38;5027619;28;20225;-66
2023/08/18 09:11:46;;;;;;;8.63;4.95;;;;;;;30.88;nan;63233.16;5027308;28;20206;-66
2023/08/18 09:14:16;;;;;;;7.03;4.75;;;;;;;31.20;nan;63411.59;5029022;28;20190;-65
2023/08/18 09:16:44;;;;;;;5.72;4.40;;;;;;;31.50;nan;63324.66;5028894;28;20183;-68
2023/08/18 09:19:13;;;;;;;5.93;4.53;;;;;;;31.78;nan;63259.16;5029307;28;20178;-64
2023/08/18 09:21:39;;;;;;;7.10;4.80;;;;;;;31.79;nan;63347.00;5032836;28;20190;-67
2023/08/18 09:24:05;;;;;;;5.68;4.18;;;;;;;31.95;nan;63397.75;5033535;28;20179;-65
2023/08/18 09:26:31;;;;;;;6.45;4.60;;;;;;;32.23;nan;63481.91;5033835;28;20657;-65
2023/08/18 09:28:57;;;;;;;5.70;4.50;;;;;;;32.34;nan;63497.25;5031011;28;20285;-66
2023/08/18 09:31:22;;;;;;;5.25;4.13;;;;;;;32.36;nan;63471.03;5032089;28;20207;-65
2023/08/18 09:33:48;;;;;;;7.38;4.35;;;;;;;32.19;nan;63400.53;5032261;28;20232;-66
2023/08/18 09:36:14;;;;;;;6.30;4.53;;;;;;;32.05;nan;63254.75;5032784;28;20214;-64
2023/08/18 09:38:43;;;;;;;6.35;4.38;;;;;;;32.06;nan;63316.72;5032159;28;20669;-64
2023/08/18 09:41:10;;;;;;;7.57;4.90;;;;;;;32.06;nan;63311.44;5032653;28;20268;-71
2023/08/18 09:43:39;;;;;;;7.50;4.90;;;;;;;32.19;nan;63297.91;5028530;28;20190;-69
2023/08/18 09:46:06;;;;;;;6.15;4.25;;;;;;;32.50;nan;63431.03;5032115;28;20186;-71
2023/08/18 09:48:38;;;;;;;6.13;4.55;;;;;;;32.63;nan;63403.13;5031944;28;20666;-71
2023/08/18 09:51:09;;;;;;;5.85;4.32;;;;;;;32.53;nan;63535.09;5032646;28;20312;-70
2023/08/18 09:53:36;;;;;;;6.20;4.32;;;;;;;32.80;nan;63473.06;5033134;28;20658;-70
2023/08/18 09:56:14;;;;;;;6.47;4.57;;;;;;;32.92;nan;63549.94;5032832;28;20237;-70
2023/08/18 09:58:54;;;;;;;5.22;4.40;;;;;;;32.75;nan;63467.84;5032287;28;20193;-70
2023/08/18 10:01:21;;;;;;;7.40;4.40;;;;;;;32.88;nan;63547.97;5033339;28;20201;-69
2023/08/18 10:03:48;;;;;;;6.18;4.20;;;;;;;32.88;nan;63566.50;5032157;28;20198;-70
2023/08/18 10:06:17;;;;;;;5.90;4.50;;;;;;;32.85;nan;63523.88;5032562;28;20179;-70
2023/08/18 10:08:43;;;;;;;5.90;4.32;;;;;;;33.03;nan;63449.28;5031984;28;20234;-71
2023/08/18 10:11:10;;;;;;;4.65;3.85;;;;;;;32.97;nan;63484.75;5031989;28;20198;-71
2023/08/18 10:13:37;;;;;;;5.93;3.92;;;;;;;33.10;nan;63602.53;5032133;28;20328;-71
2023/08/18 10:16:05;;;;;;;5.82;4.25;;;;;;;33.13;nan;63507.97;5031891;28;20281;-71
2023/08/18 10:18:31;;;;;;;7.35;4.45;;;;;;;33.10;nan;63486.53;5031640;28;20202;-70
2023/08/18 10:20:57;;;;;;;6.18;4.30;;;;;;;32.78;nan;63550.22;5030609;28;20265;-70
2023/08/18 10:23:24;;;;;;;4.80;3.78;;;;;;;32.79;nan;63522.81;5033025;28;20277;-71
2023/08/18 10:25:51;;;;;;;4.57;3.72;;;;;;;32.81;nan;63525.13;5032285;28;20178;-70
2023/08/18 10:28:19;;;;;;;7.47;4.40;;;;;;;32.95;nan;63469.19;5031577;28;20190;-70
2023/08/18 10:30:55;;;;;;;5.38;3.80;;;;;;;33.13;nan;63468.22;5030813;28;20214;-70
2023/08/18 10:33:31;;;;;;;5.28;3.90;;;;;;;33.20;nan;63474.22;5031218;28;20186;-71
2023/08/18 10:35:58;;;;;;;6.53;4.57;;;;;;;33.41;nan;63553.00;5032815;28;20182;-71
2023/08/18 10:38:30;;;;;;;6.22;4.28;;;;;;;33.43;nan;63565.94;5032852;28;20269;-71
2023/08/18 10:40:56;;;;;;;5.25;4.10;;;;;;;33.36;nan;63510.69;5031784;28;20190;-71
2023/08/18 10:43:26;;;;;;;5.43;3.97;;;;;;;33.39;nan;63630.25;5030026;28;20544;-71
2023/08/18 10:45:57;;;;;;;5.65;3.85;;;;;;;33.34;nan;63595.31;5032147;28;20198;-71
2023/08/18 10:48:27;;;;;;;6.70;4.07;;;;;;;33.60;nan;63646.59;5030078;28;20650;-71
2023/08/18 10:50:52;;;;;;;5.65;4.03;;;;;;;33.34;nan;63685.44;5030989;28;20645;-71
2023/08/18 10:53:18;;;;;;;4.93;3.83;;;;;;;33.64;nan;63539.81;5031357;28;20214;-71
2023/08/18 10:55:44;;;;;;;8.20;3.78;;;;;;;33.67;nan;63599.59;5031374;28;20198;-70
2023/08/18 10:58:09;;;;;;;6.45;4.13;;;;;;;33.41;nan;63637.84;5031389;28;20669;-70
2023/08/18 11:00:36;;;;;;;6.32;4.43;;;;;;;33.78;nan;63686.00;5033243;28;20179;-71
2023/08/18 11:03:05;;;;;;;6.88;4.95;;;;;;;33.81;nan;63704.81;5032749;28;20631;-70
2023/08/18 11:05:31;;;;;;;6.53;4.07;;;;;;;33.53;nan;63588.69;5032805;28;20186;-70
2023/08/18 11:07:58;;;;;;;4.93;3.80;;;;;;;33.62;nan;63529.53;5033031;28;20229;-70
2023/08/18 11:10:24;;;;;;;6.38;3.80;;;;;;;33.40;nan;63642.56;5033058;28;20199;-69
2023/08/18 11:12:54;;;;;;;4.32;3.35;;;;;;;33.27;nan;63580.41;5033234;28;20178;-70
2023/08/18 11:15:21;;;;;;;6.55;3.40;;;;;;;33.37;nan;63622.63;5032697;28;20167;-71
2023/08/18 11:17:47;;;;;;;4.20;2.97;;;;;;;33.22;nan;63537.50;5032907;28;20170;-70
2023/08/18 11:20:13;;;;;;;4.63;3.45;;;;;;;33.22;nan;63534.28;5032556;28;20175;-71
2023/08/18 11:22:44;;;;;;;3.95;3.00;;;;;;;33.33;nan;63560.25;5032650;28;20174;-71
2023/08/18 11:25:13;;;;;;;4.97;3.47;;;;;;;33.16;nan;63561.78;5032874;28;20626;-70
2023/08/18 11:27:41;;;;;;;4.70;3.60;;;;;;;33.18;nan;63641.56;5032821;28;20216;-71
2023/08/18 11:30:11;;;;;;;4.05;3.30;;;;;;;33.15;nan;63630.13;5030270;28;20211;-71
2023/08/18 11:32:38;;;;;;;5.30;3.45;;;;;;;33.34;nan;63560.84;5031446;28;20186;-70
2023/08/18 11:35:07;;;;;;;3.95;3.30;;;;;;;33.02;nan;63506.41;5032163;28;20174;-70
2023/08/18 11:37:39;;;;;;;4.40;3.33;;;;;;;33.07;nan;63519.56;5031903;28;20267;-70
2023/08/18 11:40:12;;;;;;;8.48;3.78;;;;;;;32.85;nan;63521.22;5032695;28;20186;-70
2023/08/18 11:42:45;;;;;;;4.93;3.20;;;;;;;32.88;nan;63402.81;5032970;28;20175;-69
2023/08/18 11:45:18;;;;;;;5.30;3.55;;;;;;;32.65;nan;63461.59;5032693;28;20176;-71
2023/08/18 11:47:46;;;;;;;4.90;3.65;;;;;;;32.93;nan;63532.53;5030950;28;20320;-70
2023/08/18 11:50:19;;;;;;;4.53;3.38;;;;;;;33.04;nan;63510.81;5030255;28;20645;-71